Bonpas, Illinois
Current Conditions -  °F | °C
As of 8:15 AM on Sunday 25 Jan 2015 (Local Time) from KOLY Reporting Station
Light Rain Light Rain  
Wind Chill: 37°   Ceiling: 4800
Heat Index: 37°   Visibility: 10mi
Dew Point: 34°   Wind: 0mph
Humidity: 87%   Direction: NA
Pressure: 29.64"   Gusts: NA
Location:  38.6228°N, 87.9781°W
Report Text: KOLY 251415Z AUTO 00000KT 10SM -RA SCT036 OVC048 03/01 A2964 RMK AO2
Loading
Personal Weather Stations






























Interactive Weather Map New forecast layout! Learn more

10-Day Weather Forecast

Advertisements
Track Severe Weather on mobile